Terminal Aerodrome Forecast
Issued by NWS

Home | Current Version | Previous Version | Graphics & Text | Print | Product List | Glossary On
Versions: 1 2 3 4 5 6 7 8 9 10 11 12 13 14 15 16 17 18 19 20 21
000
FTUS43 KFGF 011120
TAFBJI
TAF
KBJI 011120Z 0112/0212 VRB06KT 1SM BR SCT250
      TEMPO 0112/0113 1/2SM FG VV002
     FM011400 21007KT P6SM SKC=

USA.gov is the U.S. government's official web portal to all federal, state and local government web resources and services.